Time;durP1;ratioP1;P1;durP2;ratioP2;P2;SDS_P1;SDS_P2;PMS_P1;PMS_P2;Temp;Humidity;BMP_temperature;BMP_pressure;BME280_temperature;BME280_humidity;BME280_pressure;Samples;Min_cycle;Max_cycle;Signal;HPM_P1;HPM_P2
2023/06/19 00:01:03;;;;;;;14.10;6.30;;;;;;;23.42;100.00;100445.78;4941651;28;20426;-68
2023/06/19 00:03:30;;;;;;;14.73;5.97;;;;;;;23.29;100.00;100443.41;4947256;28;20572;-68
2023/06/19 00:05:56;;;;;;;11.15;6.05;;;;;;;23.32;100.00;100450.16;4944751;28;20058;-69
2023/06/19 00:08:23;;;;;;;12.90;6.03;;;;;;;23.18;100.00;100437.72;4946273;28;20051;-68
2023/06/19 00:10:50;;;;;;;16.38;6.22;;;;;;;23.21;100.00;100436.72;4945589;28;20624;-70
2023/06/19 00:13:16;;;;;;;13.65;6.32;;;;;;;23.20;100.00;100429.50;4944427;28;20106;-68
2023/06/19 00:15:43;;;;;;;13.63;6.30;;;;;;;23.22;100.00;100434.66;4945506;28;20055;-69
2023/06/19 00:18:10;;;;;;;14.10;6.35;;;;;;;23.21;100.00;100433.09;4944399;28;20160;-69
2023/06/19 00:20:39;;;;;;;12.77;6.53;;;;;;;23.20;100.00;100434.38;4945385;28;20066;-71
2023/06/19 00:23:10;;;;;;;12.75;6.32;;;;;;;23.15;100.00;100440.81;4947779;28;20055;-68
2023/06/19 00:25:37;;;;;;;16.55;6.50;;;;;;;23.06;100.00;100438.22;4946845;28;20177;-69
2023/06/19 00:28:03;;;;;;;15.70;6.82;;;;;;;23.03;100.00;100442.06;4947774;28;20054;-67
2023/06/19 00:30:32;;;;;;;13.35;6.85;;;;;;;23.03;100.00;100447.72;4945315;28;20055;-69
2023/06/19 00:33:03;;;;;;;15.02;6.50;;;;;;;22.92;100.00;100445.59;4947078;28;20055;-68
2023/06/19 00:35:29;;;;;;;12.27;6.47;;;;;;;22.91;100.00;100446.88;4945960;28;20426;-69
2023/06/19 00:37:56;;;;;;;13.35;7.03;;;;;;;22.88;100.00;100447.88;4976668;28;20078;-69
2023/06/19 00:40:30;;;;;;;13.57;6.80;;;;;;;22.77;100.00;100447.84;4941351;28;20589;-69
2023/06/19 00:42:57;;;;;;;13.70;7.15;;;;;;;22.75;100.00;100453.25;4946647;28;20059;-69
2023/06/19 00:45:24;;;;;;;15.75;7.18;;;;;;;22.73;100.00;100453.00;4944429;28;20498;-68
2023/06/19 00:47:52;;;;;;;12.63;6.57;;;;;;;22.71;100.00;100458.38;4945059;28;20078;-66
2023/06/19 00:50:21;;;;;;;15.10;6.72;;;;;;;22.67;100.00;100459.91;4949924;28;20114;-69
2023/06/19 00:52:48;;;;;;;13.57;7.20;;;;;;;22.68;100.00;100458.63;4948051;28;20051;-68
2023/06/19 00:55:16;;;;;;;14.93;7.30;;;;;;;22.63;100.00;100465.81;4948065;28;20142;-69
2023/06/19 00:57:43;;;;;;;14.65;7.13;;;;;;;22.61;100.00;100461.94;4947641;28;20044;-68
2023/06/19 01:00:12;;;;;;;14.50;7.75;;;;;;;22.58;100.00;100462.94;4950115;28;20134;-68
2023/06/19 01:02:39;;;;;;;16.33;7.07;;;;;;;22.56;100.00;100468.34;4951211;28;20051;-69
2023/06/19 01:05:06;;;;;;;13.05;7.28;;;;;;;22.51;100.00;100464.19;4948966;28;20051;-72
2023/06/19 01:07:42;;;;;;;14.30;7.15;;;;;;;22.43;100.00;100465.16;4948276;28;20043;-67
2023/06/19 01:10:14;;;;;;;12.75;6.75;;;;;;;22.41;100.00;100467.75;4949081;28;20106;-69
2023/06/19 01:12:50;;;;;;;13.00;6.65;;;;;;;22.38;100.00;100477.25;4947967;28;20082;-68
2023/06/19 01:15:18;;;;;;;15.23;7.07;;;;;;;22.45;100.00;100471.09;4947556;28;20462;-69
2023/06/19 01:17:46;;;;;;;14.50;6.93;;;;;;;22.42;100.00;100467.22;4949911;28;20105;-70
2023/06/19 01:20:14;;;;;;;14.98;7.13;;;;;;;22.35;100.00;100472.59;4946618;28;20050;-69
2023/06/19 01:22:43;;;;;;;14.10;7.20;;;;;;;22.39;100.00;100467.47;4949517;28;20083;-70
2023/06/19 01:25:13;;;;;;;13.02;6.43;;;;;;;22.36;100.00;100465.63;4947721;28;20062;-69
2023/06/19 01:27:42;;;;;;;11.75;5.70;;;;;;;22.32;100.00;100462.25;4948839;28;20785;-69
2023/06/19 01:30:11;;;;;;;14.57;6.78;;;;;;;22.31;100.00;100466.38;4947115;28;20147;-69
2023/06/19 01:32:37;;;;;;;14.60;6.20;;;;;;;22.35;100.00;100464.09;4946908;28;20055;-68
2023/06/19 01:35:07;;;;;;;13.60;6.88;;;;;;;22.34;100.00;100459.72;4948311;28;20058;-69
2023/06/19 01:37:34;;;;;;;14.57;6.88;;;;;;;22.30;100.00;100459.16;4949497;28;20075;-68
2023/06/19 01:40:05;;;;;;;15.25;7.25;;;;;;;22.27;100.00;100455.25;4949532;28;20062;-67
2023/06/19 01:42:33;;;;;;;16.38;7.45;;;;;;;22.25;100.00;100455.00;4953014;28;20059;-68
2023/06/19 01:45:02;;;;;;;15.85;7.45;;;;;;;22.17;100.00;100457.50;4963354;28;20059;-69
2023/06/19 01:47:29;;;;;;;14.57;7.28;;;;;;;22.17;100.00;100444.63;4946539;28;20067;-70
2023/06/19 01:49:56;;;;;;;14.60;6.88;;;;;;;22.15;100.00;100440.22;4948978;28;20520;-68
2023/06/19 01:52:24;;;;;;;16.65;7.00;;;;;;;22.10;100.00;100449.47;4949084;28;20119;-69
2023/06/19 01:54:51;;;;;;;14.60;7.25;;;;;;;22.03;100.00;100454.81;4949144;28;20055;-67
2023/06/19 01:57:18;;;;;;;13.73;6.90;;;;;;;21.94;100.00;100443.69;4945801;28;20079;-69
2023/06/19 01:59:45;;;;;;;13.95;7.28;;;;;;;21.88;100.00;100445.69;4947295;28;20058;-69
2023/06/19 02:02:11;;;;;;;14.23;7.88;;;;;;;21.84;100.00;100450.81;4947715;28;20146;-66
2023/06/19 02:04:38;;;;;;;16.40;7.80;;;;;;;21.75;100.00;100453.81;4946826;28;20455;-70
2023/06/19 02:07:05;;;;;;;15.38;7.32;;;;;;;21.74;100.00;100444.53;4938038;28;20098;-69
2023/06/19 02:09:31;;;;;;;16.30;7.70;;;;;;;21.72;100.00;100449.16;4942530;29;20047;-67
2023/06/19 02:11:58;;;;;;;14.30;7.15;;;;;;;21.57;100.00;100446.41;4944226;28;20537;-71
2023/06/19 02:14:24;;;;;;;18.17;8.05;;;;;;;21.49;100.00;100445.31;4945374;28;20122;-72
2023/06/19 02:16:51;;;;;;;14.60;7.72;;;;;;;21.42;100.00;100448.56;4948345;29;20113;-71
2023/06/19 02:19:17;;;;;;;13.63;7.13;;;;;;;21.38;100.00;100445.19;4946067;28;20046;-71
2023/06/19 02:21:44;;;;;;;13.60;7.60;;;;;;;21.39;100.00;100460.09;4940035;28;20147;-70
2023/06/19 02:24:10;;;;;;;14.00;6.75;;;;;;;21.36;100.00;100459.03;4945695;28;20514;-72
2023/06/19 02:26:37;;;;;;;13.27;7.13;;;;;;;21.34;100.00;100461.63;4944319;28;20081;-71
2023/06/19 02:29:03;;;;;;;17.23;8.25;;;;;;;21.35;100.00;100465.97;4961465;28;20194;-70
2023/06/19 02:31:30;;;;;;;13.85;7.57;;;;;;;21.37;100.00;100468.31;4939864;28;20525;-70
2023/06/19 02:33:56;;;;;;;14.38;7.90;;;;;;;21.36;100.00;100473.19;4947195;28;20086;-71
2023/06/19 02:36:23;;;;;;;15.75;7.72;;;;;;;21.24;100.00;100480.00;4947215;28;20078;-70
2023/06/19 02:38:49;;;;;;;16.88;8.18;;;;;;;21.17;100.00;100477.59;4937107;28;20126;-72
2023/06/19 02:41:16;;;;;;;17.35;8.20;;;;;;;21.04;100.00;100485.66;4942924;28;20075;-71
2023/06/19 02:43:44;;;;;;;17.92;8.25;;;;;;;21.03;100.00;100491.81;4947163;28;20504;-68
2023/06/19 02:46:11;;;;;;;15.20;7.85;;;;;;;20.96;100.00;100495.81;4938974;28;20743;-70
2023/06/19 02:48:39;;;;;;;15.52;8.18;;;;;;;20.98;100.00;100498.16;4942190;28;20058;-71
2023/06/19 02:51:05;;;;;;;15.20;7.97;;;;;;;21.01;100.00;100502.81;4944823;28;20075;-69
2023/06/19 02:53:32;;;;;;;15.13;7.47;;;;;;;20.93;100.00;100510.16;4947431;28;20505;-68
2023/06/19 02:55:58;;;;;;;13.77;7.55;;;;;;;20.87;100.00;100512.91;4947894;28;20109;-69
2023/06/19 02:58:26;;;;;;;14.50;7.50;;;;;;;20.83;100.00;100515.13;4945926;28;20652;-69
2023/06/19 03:00:54;;;;;;;17.15;7.80;;;;;;;20.77;100.00;100519.97;4948015;28;20078;-67
2023/06/19 03:03:22;;;;;;;17.45;7.47;;;;;;;20.82;100.00;100529.78;4944096;28;20066;-67
2023/06/19 03:05:49;;;;;;;15.50;7.90;;;;;;;20.77;100.00;100522.78;4938946;28;20051;-72
2023/06/19 03:08:16;;;;;;;14.88;7.20;;;;;;;20.77;100.00;100534.09;4942598;28;20079;-70
2023/06/19 03:10:42;;;;;;;14.10;7.25;;;;;;;20.78;100.00;100541.28;4945269;28;20565;-70
2023/06/19 03:13:09;;;;;;;14.20;6.32;;;;;;;20.78;100.00;100540.50;4946298;28;20155;-70
2023/06/19 03:15:35;;;;;;;13.88;6.97;;;;;;;20.75;100.00;100538.66;4945190;29;20077;-71
2023/06/19 03:18:04;;;;;;;15.73;7.47;;;;;;;20.72;100.00;100540.41;4947156;28;20040;-71
2023/06/19 03:20:31;;;;;;;14.57;6.90;;;;;;;20.71;100.00;100547.34;4944099;28;20058;-70
2023/06/19 03:22:57;;;;;;;13.30;6.82;;;;;;;20.69;100.00;100558.34;4944766;28;20106;-68
2023/06/19 03:25:24;;;;;;;11.32;5.38;;;;;;;20.64;100.00;100547.75;4937812;28;20139;-72
2023/06/19 03:27:50;;;;;;;11.07;5.05;;;;;;;20.64;100.00;100550.56;4946735;28;20133;-72
2023/06/19 03:30:18;;;;;;;8.95;4.07;;;;;;;20.75;100.00;100573.34;4946991;28;20106;-69
2023/06/19 03:32:45;;;;;;;11.70;5.97;;;;;;;20.89;100.00;100568.94;4946361;28;20162;-70
2023/06/19 03:35:11;;;;;;;9.73;4.18;;;;;;;20.87;100.00;100565.81;4951400;28;20086;-69
2023/06/19 03:37:38;;;;;;;5.30;2.50;;;;;;;20.91;100.00;100569.19;4941951;29;20427;-70
2023/06/19 03:40:05;;;;;;;11.15;5.22;;;;;;;21.01;100.00;100565.00;4948004;29;20054;-70
2023/06/19 03:42:32;;;;;;;11.02;4.90;;;;;;;20.90;100.00;100576.13;4947079;28;20096;-70
2023/06/19 03:44:58;;;;;;;12.73;5.88;;;;;;;21.02;100.00;100578.63;4944940;28;20069;-71
2023/06/19 03:47:25;;;;;;;12.15;6.00;;;;;;;20.94;100.00;100577.50;4946471;28;20063;-70
2023/06/19 03:49:51;;;;;;;11.90;5.60;;;;;;;20.98;100.00;100571.63;4946725;28;20106;-69
2023/06/19 03:52:20;;;;;;;15.20;5.72;;;;;;;20.87;100.00;100577.91;4941321;28;20590;-70
2023/06/19 03:54:47;;;;;;;13.80;3.35;;;;;;;20.88;100.00;100575.81;4945076;28;20092;-70
2023/06/19 03:57:13;;;;;;;6.95;3.15;;;;;;;20.84;100.00;100589.38;4940760;29;20082;-68
2023/06/19 03:59:40;;;;;;;10.75;5.38;;;;;;;20.83;100.00;100591.41;4958951;28;20552;-70
2023/06/19 04:02:06;;;;;;;6.63;3.22;;;;;;;20.75;100.00;100598.75;4937792;28;20532;-69
2023/06/19 04:04:33;;;;;;;7.47;3.22;;;;;;;20.61;100.00;100598.78;4944500;29;20142;-71
2023/06/19 04:06:59;;;;;;;8.55;4.65;;;;;;;20.74;100.00;100599.25;4941075;29;20055;-71
2023/06/19 04:09:26;;;;;;;12.98;5.20;;;;;;;20.73;100.00;100597.69;4948450;29;20533;-70
2023/06/19 04:11:52;;;;;;;9.25;3.45;;;;;;;20.71;100.00;100595.34;4940114;28;20094;-70
2023/06/19 04:14:19;;;;;;;9.40;3.45;;;;;;;20.58;100.00;100603.38;4946217;28;20063;-70
2023/06/19 04:16:45;;;;;;;7.15;3.50;;;;;;;20.63;100.00;100608.34;4947135;28;20051;-71
2023/06/19 04:19:12;;;;;;;11.48;4.93;;;;;;;20.69;100.00;100614.84;4946146;28;20043;-71
2023/06/19 04:21:39;;;;;;;9.60;3.97;;;;;;;20.58;100.00;100617.50;4948701;28;20510;-70
2023/06/19 04:24:08;;;;;;;11.88;4.47;;;;;;;20.58;100.00;100623.13;4950581;29;20134;-73
2023/06/19 04:26:36;;;;;;;4.97;2.30;;;;;;;20.42;100.00;100626.44;4975221;28;20092;-74
2023/06/19 04:29:03;;;;;;;9.65;4.43;;;;;;;20.43;100.00;100633.69;4945007;28;20429;-71
2023/06/19 04:31:30;;;;;;;12.50;4.95;;;;;;;20.43;100.00;100638.53;4944656;29;20059;-69
2023/06/19 04:33:57;;;;;;;14.38;5.45;;;;;;;20.52;100.00;100636.38;4940197;28;20055;-72
2023/06/19 04:36:23;;;;;;;8.30;2.80;;;;;;;20.24;100.00;100640.78;4949917;28;20151;-71
2023/06/19 04:38:53;;;;;;;3.28;1.33;;;;;;;20.20;100.00;100645.00;4949241;28;20055;-74
2023/06/19 04:41:19;;;;;;;8.23;2.25;;;;;;;20.12;100.00;100658.75;4948769;29;20159;-70
2023/06/19 04:43:46;;;;;;;3.70;1.65;;;;;;;20.20;100.00;100659.91;4948457;28;20082;-71
2023/06/19 04:46:12;;;;;;;11.43;4.22;;;;;;;20.21;100.00;100666.34;4944004;28;20481;-72
2023/06/19 04:48:40;;;;;;;14.77;4.28;;;;;;;20.19;100.00;100661.19;4950332;28;20526;-71
2023/06/19 04:51:06;;;;;;;9.85;3.97;;;;;;;20.16;100.00;100664.97;4946852;28;20106;-72
2023/06/19 04:53:33;;;;;;;6.45;2.20;;;;;;;20.12;100.00;100664.41;4948431;28;20552;-73
2023/06/19 04:55:59;;;;;;;10.52;4.45;;;;;;;20.20;100.00;100676.84;4950853;28;20051;-71
2023/06/19 04:58:28;;;;;;;7.28;2.05;;;;;;;20.07;100.00;100673.53;4948548;28;20143;-73
2023/06/19 05:00:55;;;;;;;8.30;3.85;;;;;;;20.13;100.00;100665.94;4948819;28;20407;-74
2023/06/19 05:03:21;;;;;;;6.10;2.28;;;;;;;19.85;100.00;100678.72;4942672;28;20090;-72
2023/06/19 05:05:48;;;;;;;5.43;2.38;;;;;;;19.87;100.00;100675.44;4949757;28;20051;-74
2023/06/19 05:08:15;;;;;;;9.32;3.40;;;;;;;20.00;100.00;100678.75;4942454;28;20070;-73
2023/06/19 05:10:41;;;;;;;7.55;3.60;;;;;;;19.81;100.00;100703.50;4950182;29;20055;-70
2023/06/19 05:13:11;;;;;;;9.80;4.00;;;;;;;20.03;100.00;100686.25;4937223;28;20060;-74
2023/06/19 05:15:38;;;;;;;12.68;3.70;;;;;;;19.98;100.00;100690.50;4946440;28;20126;-71
2023/06/19 05:18:05;;;;;;;8.57;3.40;;;;;;;19.84;100.00;100701.78;4949672;28;20118;-75
2023/06/19 05:20:31;;;;;;;4.35;2.03;;;;;;;19.59;100.00;100700.22;4956015;28;20517;-70
2023/06/19 05:22:58;;;;;;;6.85;2.05;;;;;;;19.66;100.00;100699.88;4942695;28;20060;-70
2023/06/19 05:25:24;;;;;;;7.68;2.60;;;;;;;19.66;100.00;100713.97;4948784;29;20083;-72
2023/06/19 05:27:51;;;;;;;3.67;1.33;;;;;;;19.66;100.00;100703.47;4942085;28;20106;-71
2023/06/19 05:30:18;;;;;;;6.72;2.80;;;;;;;19.77;100.00;100706.53;4953308;28;20097;-73
2023/06/19 05:32:44;;;;;;;6.13;2.55;;;;;;;19.62;100.00;100710.56;4946993;28;20106;-71
2023/06/19 05:35:11;;;;;;;4.80;2.17;;;;;;;19.62;100.00;100708.50;4940114;28;20094;-71
2023/06/19 05:37:43;;;;;;;8.35;3.25;;;;;;;19.81;100.00;100714.03;4945370;28;20051;-70
2023/06/19 05:40:10;;;;;;;6.93;2.85;;;;;;;19.87;100.00;100709.28;4949540;29;20054;-73
2023/06/19 05:42:37;;;;;;;2.92;1.55;;;;;;;19.74;100.00;100715.94;4948198;28;20048;-67
2023/06/19 05:45:04;;;;;;;5.78;1.33;;;;;;;19.84;100.00;100721.53;4941617;28;20220;-73
2023/06/19 05:47:30;;;;;;;3.85;1.63;;;;;;;19.96;100.00;100724.09;4947598;29;20146;-72
2023/06/19 05:49:58;;;;;;;4.68;2.33;;;;;;;19.97;100.00;100717.19;4963364;28;20055;-73
2023/06/19 05:52:24;;;;;;;4.93;1.77;;;;;;;19.96;100.00;100717.66;4943853;29;20086;-73
2023/06/19 05:54:53;;;;;;;12.63;4.28;;;;;;;20.11;100.00;100713.63;4944281;28;20177;-72
2023/06/19 05:57:23;;;;;;;6.00;2.53;;;;;;;19.95;100.00;100714.09;4947723;28;20571;-73
2023/06/19 05:59:50;;;;;;;10.88;4.00;;;;;;;20.06;100.00;100731.22;4943404;29;20051;-69
2023/06/19 06:02:18;;;;;;;5.07;1.75;;;;;;;19.86;100.00;100727.44;4945419;28;20134;-70
2023/06/19 06:04:45;;;;;;;9.73;4.45;;;;;;;20.08;100.00;100739.97;4950315;28;20054;-73
2023/06/19 06:07:13;;;;;;;7.53;3.63;;;;;;;19.98;100.00;100752.59;4947293;28;20569;-69
2023/06/19 06:09:39;;;;;;;7.13;3.53;;;;;;;19.97;100.00;100744.59;4949217;28;20047;-69
2023/06/19 06:12:07;;;;;;;13.32;4.15;;;;;;;19.77;100.00;100750.88;4950404;28;20694;-71
2023/06/19 06:14:33;;;;;;;7.45;3.15;;;;;;;19.57;100.00;100750.66;4950050;29;20114;-69
2023/06/19 06:17:00;;;;;;;15.75;4.65;;;;;;;19.80;100.00;100755.56;4949340;28;20070;-70
2023/06/19 06:19:26;;;;;;;6.10;2.05;;;;;;;19.59;100.00;100762.25;4946318;28;20055;-69
2023/06/19 06:21:53;;;;;;;9.65;3.72;;;;;;;19.75;100.00;100770.31;4950382;28;20077;-69
2023/06/19 06:24:19;;;;;;;4.13;1.92;;;;;;;19.56;100.00;100769.66;4946600;28;20557;-69
2023/06/19 06:26:46;;;;;;;12.73;5.35;;;;;;;19.76;100.00;100774.69;4949760;28;20058;-68
2023/06/19 06:29:12;;;;;;;10.40;5.20;;;;;;;19.86;100.00;100770.56;4950360;28;20438;-68
2023/06/19 06:31:41;;;;;;;7.30;3.47;;;;;;;19.90;100.00;100770.38;4949432;28;20047;-72
2023/06/19 06:34:08;;;;;;;3.25;1.65;;;;;;;19.69;100.00;100783.53;4947015;28;20054;-68
2023/06/19 06:36:35;;;;;;;10.40;3.08;;;;;;;19.68;100.00;100773.50;4947132;28;20066;-69
2023/06/19 06:39:07;;;;;;;7.55;3.42;;;;;;;19.63;100.00;100779.78;4944169;29;20110;-69
2023/06/19 06:41:33;;;;;;;3.88;2.20;;;;;;;19.64;100.00;100786.97;4948100;29;20043;-68
2023/06/19 06:44:00;;;;;;;7.13;3.95;;;;;;;19.77;100.00;100776.25;4943755;28;20130;-69
2023/06/19 06:46:27;;;;;;;9.07;4.15;;;;;;;19.84;100.00;100773.06;4959600;28;20059;-68
2023/06/19 06:48:54;;;;;;;8.05;2.47;;;;;;;19.68;100.00;100788.38;4942702;28;20551;-67
2023/06/19 06:51:22;;;;;;;9.40;3.58;;;;;;;19.81;100.00;100768.38;4946510;29;20455;-68
2023/06/19 06:53:50;;;;;;;8.75;2.95;;;;;;;19.91;100.00;100781.16;4943296;28;20059;-69
2023/06/19 06:56:16;;;;;;;5.22;2.33;;;;;;;19.79;100.00;100787.84;4942166;29;20522;-68
2023/06/19 06:58:46;;;;;;;8.93;3.25;;;;;;;20.03;100.00;100787.84;4938796;29;20130;-74
2023/06/19 07:01:12;;;;;;;3.08;1.45;;;;;;;19.93;100.00;100795.59;4951548;28;20054;-71
2023/06/19 07:03:39;;;;;;;5.35;3.10;;;;;;;20.01;100.00;100793.97;4943610;29;20546;-72
2023/06/19 07:06:06;;;;;;;3.67;1.80;;;;;;;19.98;100.00;100794.91;4946164;28;20414;-73
2023/06/19 07:08:33;;;;;;;9.98;3.05;;;;;;;20.02;100.00;100789.09;4945898;29;20074;-71
2023/06/19 07:10:59;;;;;;;5.65;2.65;;;;;;;19.98;100.00;100803.38;4947466;28;20152;-71
2023/06/19 07:13:26;;;;;;;7.03;2.03;;;;;;;19.92;100.00;100802.50;4940249;28;20059;-68
2023/06/19 07:15:52;;;;;;;8.88;4.07;;;;;;;20.04;100.00;100807.13;4946342;28;20118;-70
2023/06/19 07:18:19;;;;;;;4.93;2.15;;;;;;;19.94;100.00;100802.03;4946752;28;20674;-69
2023/06/19 07:20:45;;;;;;;8.73;4.05;;;;;;;20.24;100.00;100800.88;4942754;28;20090;-69
2023/06/19 07:23:12;;;;;;;2.50;1.50;;;;;;;20.18;100.00;100808.44;4943248;28;20660;-69
2023/06/19 07:25:38;;;;;;;4.32;2.17;;;;;;;20.15;100.00;100807.34;4939117;28;20075;-70
2023/06/19 07:28:05;;;;;;;5.93;2.50;;;;;;;20.17;100.00;100813.31;4943804;28;20171;-69
2023/06/19 07:30:32;;;;;;;6.55;2.47;;;;;;;19.99;100.00;100818.28;4945022;28;20303;-68
2023/06/19 07:32:58;;;;;;;6.50;3.00;;;;;;;20.04;100.00;100815.59;4944469;28;20150;-70
2023/06/19 07:35:25;;;;;;;6.05;2.33;;;;;;;20.05;100.00;100816.38;4955168;28;20058;-69
2023/06/19 07:37:51;;;;;;;7.68;4.15;;;;;;;20.10;100.00;100816.50;4947562;28;20085;-69
2023/06/19 07:40:18;;;;;;;5.80;2.00;;;;;;;19.91;100.00;100817.09;4943093;28;20083;-68
2023/06/19 07:42:44;;;;;;;10.82;4.22;;;;;;;20.20;100.00;100820.81;4939313;28;20047;-66
2023/06/19 07:45:12;;;;;;;11.15;4.10;;;;;;;20.14;100.00;100817.09;4947922;28;20486;-70
2023/06/19 07:47:38;;;;;;;1.75;1.17;;;;;;;20.03;100.00;100819.66;4978806;28;20075;-69
2023/06/19 07:50:05;;;;;;;7.88;4.00;;;;;;;20.05;100.00;100834.06;4949842;28;20134;-71
2023/06/19 07:52:34;;;;;;;6.93;3.58;;;;;;;20.02;100.00;100829.41;4948032;28;20087;-68
2023/06/19 07:55:02;;;;;;;2.90;1.35;;;;;;;19.83;100.00;100842.03;4949547;28;20074;-68
2023/06/19 07:57:29;;;;;;;2.78;1.80;;;;;;;19.78;100.00;100837.84;4946531;28;20055;-70
2023/06/19 07:59:56;;;;;;;5.47;1.60;;;;;;;19.73;100.00;100841.31;4950551;28;20071;-68
2023/06/19 08:02:22;;;;;;;6.35;2.85;;;;;;;19.96;100.00;100851.06;4952138;28;20089;-65
2023/06/19 08:04:49;;;;;;;7.85;3.38;;;;;;;19.94;100.00;100847.94;4943172;28;20060;-70
2023/06/19 08:07:16;;;;;;;4.38;2.20;;;;;;;19.71;100.00;100854.31;4948027;29;20148;-69
2023/06/19 08:09:43;;;;;;;8.57;2.97;;;;;;;19.56;100.00;100861.91;4948881;28;20049;-69
2023/06/19 08:12:10;;;;;;;9.80;3.85;;;;;;;19.77;100.00;100846.78;4957191;28;20055;-69
2023/06/19 08:14:38;;;;;;;2.28;1.23;;;;;;;19.60;100.00;100849.22;4951258;28;20510;-69
2023/06/19 08:17:05;;;;;;;9.75;3.67;;;;;;;19.81;100.00;100847.38;4950638;28;20058;-69
2023/06/19 08:19:31;;;;;;;5.68;2.38;;;;;;;19.84;100.00;100840.00;4943572;28;20051;-69
2023/06/19 08:21:58;;;;;;;8.43;4.00;;;;;;;20.15;100.00;100849.69;4941409;28;20051;-72
2023/06/19 08:24:25;;;;;;;2.35;1.35;;;;;;;20.17;100.00;100844.34;4943946;29;20142;-73
2023/06/19 08:26:52;;;;;;;8.10;4.05;;;;;;;20.49;100.00;100846.31;4943271;28;20557;-70
2023/06/19 08:29:18;;;;;;;8.65;2.65;;;;;;;20.40;100.00;100845.63;4944299;28;20097;-71
2023/06/19 08:31:45;;;;;;;7.07;3.00;;;;;;;20.26;100.00;100841.50;4943546;28;20047;-72
2023/06/19 08:34:12;;;;;;;5.65;3.05;;;;;;;20.28;100.00;100849.50;4945106;28;20103;-69
2023/06/19 08:36:38;;;;;;;10.90;5.10;;;;;;;20.50;100.00;100847.13;4945048;28;20111;-69
2023/06/19 08:39:07;;;;;;;13.65;4.55;;;;;;;20.52;100.00;100842.53;4951039;28;20078;-70
2023/06/19 08:41:37;;;;;;;5.97;2.03;;;;;;;20.32;100.00;100838.78;4947682;28;20055;-70
2023/06/19 08:44:05;;;;;;;9.18;3.65;;;;;;;20.46;100.00;100840.88;4942955;28;20075;-68
2023/06/19 08:46:32;;;;;;;6.72;3.25;;;;;;;20.74;100.00;100828.06;4952621;28;20055;-69
2023/06/19 08:49:00;;;;;;;10.40;4.40;;;;;;;20.93;100.00;100838.75;4946707;28;20074;-71
2023/06/19 08:51:28;;;;;;;11.95;4.28;;;;;;;21.19;100.00;100831.25;4949031;29;20062;-70
2023/06/19 08:54:00;;;;;;;9.80;3.78;;;;;;;21.03;100.00;100830.97;4945806;28;20466;-71
2023/06/19 08:56:27;;;;;;;5.22;2.13;;;;;;;21.04;100.00;100833.31;4944949;29;20075;-68
2023/06/19 08:58:53;;;;;;;6.72;2.28;;;;;;;21.33;100.00;100838.19;4944497;28;20137;-71
2023/06/19 09:01:20;;;;;;;11.45;2.97;;;;;;;21.48;100.00;100841.75;4944893;28;20066;-68
2023/06/19 09:03:51;;;;;;;6.63;2.78;;;;;;;21.48;100.00;100853.88;4949070;28;20059;-70
2023/06/19 09:06:18;;;;;;;5.43;2.33;;;;;;;21.56;100.00;100866.31;4943253;28;20113;-72
2023/06/19 09:08:45;;;;;;;6.40;3.05;;;;;;;21.55;100.00;100847.81;4946305;28;20138;-70
2023/06/19 09:11:12;;;;;;;6.65;2.47;;;;;;;21.35;100.00;100842.06;4949296;28;20153;-66
2023/06/19 09:13:38;;;;;;;4.28;1.90;;;;;;;21.23;100.00;100853.69;4947919;28;20138;-67
2023/06/19 09:16:07;;;;;;;3.70;1.67;;;;;;;21.29;100.00;100854.53;4944168;28;20197;-69
2023/06/19 09:18:46;;;;;;;14.52;2.90;;;;;;;21.56;100.00;100842.91;4949415;29;20063;-68
2023/06/19 09:21:21;;;;;;;6.13;2.33;;;;;;;21.50;100.00;100853.38;4949722;28;20141;-68
2023/06/19 09:23:49;;;;;;;7.43;2.72;;;;;;;21.66;100.00;100852.88;4942900;28;20058;-67
2023/06/19 09:26:17;;;;;;;7.53;2.22;;;;;;;21.66;100.00;100852.88;4946794;28;20051;-69
2023/06/19 09:28:44;;;;;;;6.70;3.47;;;;;;;21.80;100.00;100854.88;4943063;29;20058;-67
2023/06/19 09:31:11;;;;;;;7.18;3.28;;;;;;;21.94;100.00;100862.59;4941738;28;20102;-67
2023/06/19 09:33:39;;;;;;;7.82;3.03;;;;;;;22.11;100.00;100861.53;4944719;28;20094;-70
2023/06/19 09:36:06;;;;;;;6.50;2.97;;;;;;;22.05;100.00;100852.16;4946278;28;20727;-70
2023/06/19 09:38:40;;;;;;;9.13;3.63;;;;;;;21.96;100.00;100852.31;4947758;28;20047;-68
2023/06/19 09:41:07;;;;;;;7.78;3.85;;;;;;;22.32;100.00;100862.38;4948876;28;20047;-69
2023/06/19 09:43:40;;;;;;;7.30;3.60;;;;;;;22.11;100.00;100855.09;4953987;28;20106;-67
2023/06/19 09:46:07;;;;;;;10.07;3.50;;;;;;;22.10;100.00;100859.97;4950285;29;20102;-68
2023/06/19 09:48:39;;;;;;;6.57;1.45;;;;;;;21.77;100.00;100865.16;4950612;28;20059;-67
2023/06/19 09:51:23;;;;;;;8.50;3.55;;;;;;;21.92;100.00;100862.28;4950857;28;20066;-68
2023/06/19 09:53:52;;;;;;;6.75;2.88;;;;;;;22.00;100.00;100867.03;4944277;29;20750;-66
2023/06/19 09:56:25;;;;;;;10.70;5.30;;;;;;;22.38;100.00;100870.94;4948993;28;20051;-67
2023/06/19 09:59:00;;;;;;;10.82;4.45;;;;;;;22.50;100.00;100861.28;4943653;28;20066;-67
2023/06/19 10:01:31;;;;;;;10.20;5.68;;;;;;;22.68;100.00;100867.44;4944199;28;20073;-69
2023/06/19 10:04:04;;;;;;;6.38;2.88;;;;;;;22.50;100.00;100870.56;4943611;29;20055;-67
2023/06/19 10:06:31;;;;;;;13.25;5.60;;;;;;;22.77;100.00;100877.84;4943537;28;20094;-67
2023/06/19 10:09:07;;;;;;;8.48;4.35;;;;;;;22.67;100.00;100882.09;4938338;28;20078;-67
2023/06/19 10:11:46;;;;;;;9.52;4.72;;;;;;;22.75;100.00;100895.34;4947907;28;20059;-68
2023/06/19 10:14:13;;;;;;;10.65;5.30;;;;;;;22.72;100.00;100879.34;4947918;29;20046;-67
2023/06/19 10:16:41;;;;;;;9.80;5.40;;;;;;;22.81;100.00;100881.25;4949481;28;20117;-69
2023/06/19 10:19:13;;;;;;;6.43;3.53;;;;;;;22.80;100.00;100883.31;4946516;28;20059;-69
2023/06/19 10:21:52;;;;;;;9.35;2.58;;;;;;;22.70;100.00;100900.94;4950377;28;20062;-74
2023/06/19 10:24:20;;;;;;;7.75;3.60;;;;;;;22.82;100.00;100886.44;4945899;28;20051;-77
2023/06/19 10:26:59;;;;;;;11.27;4.22;;;;;;;22.80;100.00;100891.81;4937479;29;20114;-72
2023/06/19 10:29:27;;;;;;;7.60;2.42;;;;;;;22.91;100.00;100882.66;4946993;28;20123;-72
2023/06/19 10:31:56;;;;;;;12.13;5.55;;;;;;;23.40;100.00;100888.84;4948096;28;20058;-75
2023/06/19 10:34:33;;;;;;;5.72;2.30;;;;;;;23.35;100.00;100883.91;4941053;28;20617;-74
2023/06/19 10:37:00;;;;;;;8.68;2.40;;;;;;;23.20;100.00;100890.97;4937034;29;20048;-73
2023/06/19 10:39:27;;;;;;;7.22;3.05;;;;;;;23.10;100.00;100895.25;4941127;28;20532;-72
2023/06/19 10:41:53;;;;;;;9.27;4.40;;;;;;;23.46;100.00;100883.97;4945793;28;20074;-74
2023/06/19 10:44:23;;;;;;;4.82;2.47;;;;;;;23.20;100.00;100882.47;4949688;28;20138;-73
2023/06/19 10:46:50;;;;;;;9.52;3.30;;;;;;;23.05;100.00;100874.06;4949568;28;20654;-71
2023/06/19 10:49:17;;;;;;;11.43;4.55;;;;;;;23.63;100.00;100872.81;4945450;28;20106;-70
2023/06/19 10:51:44;;;;;;;8.32;4.35;;;;;;;24.08;100.00;100869.00;4942257;28;20043;-70
2023/06/19 10:54:11;;;;;;;12.55;5.07;;;;;;;24.24;100.00;100871.19;4947484;28;20130;-70
2023/06/19 10:56:37;;;;;;;13.05;5.00;;;;;;;24.56;100.00;100869.78;4940165;28;20122;-71
2023/06/19 10:59:09;;;;;;;8.90;4.32;;;;;;;24.80;100.00;100857.97;4948183;29;20110;-68
2023/06/19 11:01:39;;;;;;;13.15;4.30;;;;;;;24.92;100.00;100866.06;4948003;28;20059;-70
2023/06/19 11:04:07;;;;;;;8.18;3.97;;;;;;;24.69;100.00;100864.41;4949497;28;20126;-71
2023/06/19 11:06:34;;;;;;;10.90;4.35;;;;;;;25.09;100.00;100857.53;4949512;28;20157;-70
2023/06/19 11:09:06;;;;;;;6.25;3.03;;;;;;;24.80;100.00;100858.75;4949315;28;20138;-69
2023/06/19 11:11:42;;;;;;;10.40;4.78;;;;;;;24.96;100.00;100865.78;4949680;28;20043;-67
2023/06/19 11:14:10;;;;;;;9.60;4.30;;;;;;;25.13;100.00;100863.75;4948617;28;20055;-70
2023/06/19 11:16:42;;;;;;;10.70;4.32;;;;;;;25.21;100.00;100859.88;4946965;28;20524;-70